createdAt,value
2018-03-14T00:01:16.775Z,97807.03
2018-03-14T00:03:45.870Z,97808.09
2018-03-14T00:06:14.956Z,97809.91
2018-03-14T00:08:43.329Z,97807.69
2018-03-14T00:11:11.661Z,97813.37
2018-03-14T00:13:40.112Z,97811.09
2018-03-14T00:16:08.505Z,97819.36
2018-03-14T00:18:36.829Z,97813.03
2018-03-14T00:21:05.156Z,97816.67
2018-03-14T00:23:33.524Z,97820.46
2018-03-14T00:26:02.303Z,97818.85
2018-03-14T00:28:30.681Z,97824.30
2018-03-14T00:31:00.200Z,97822.35
2018-03-14T00:33:28.548Z,97828.42
2018-03-14T00:35:57.109Z,97824.86
2018-03-14T00:38:25.760Z,97815.52
2018-03-14T00:40:54.107Z,97822.18
2018-03-14T00:43:23.305Z,97826.28
2018-03-14T00:45:51.804Z,97826.82
2018-03-14T00:48:20.207Z,97822.80
2018-03-14T00:50:49.325Z,97825.56
2018-03-14T00:53:18.268Z,97823.58
2018-03-14T00:55:46.634Z,97826.56
2018-03-14T00:58:15.751Z,97821.93
2018-03-14T01:00:44.085Z,97825.55
2018-03-14T01:03:13.912Z,97822.38
2018-03-14T01:05:43.025Z,97818.63
2018-03-14T01:08:12.112Z,97815.58
2018-03-14T01:10:41.773Z,97816.98
2018-03-14T01:13:10.137Z,97823.05
2018-03-14T01:15:38.461Z,97826.68
2018-03-14T01:18:06.788Z,97817.12
2018-03-14T01:20:36.587Z,97820.69
2018-03-14T01:23:04.904Z,97828.19
2018-03-14T01:25:33.232Z,97821.47
2018-03-14T01:28:01.611Z,97830.73
2018-03-14T01:30:30.705Z,97830.23
2018-03-14T01:32:59.801Z,97823.28
2018-03-14T01:35:28.157Z,97819.08
2018-03-14T01:37:56.484Z,97812.73
2018-03-14T01:40:24.804Z,97817.42
2018-03-14T01:42:53.602Z,97819.02
2018-03-14T01:45:21.932Z,97824.76
2018-03-14T01:47:50.261Z,97820.77
2018-03-14T01:50:19.871Z,97819.31
2018-03-14T01:52:48.234Z,97820.11
2018-03-14T01:55:16.588Z,97818.22
2018-03-14T01:57:45.821Z,97824.16
2018-03-14T02:00:14.148Z,97828.06
2018-03-14T02:02:43.053Z,97824.73
2018-03-14T02:05:11.372Z,97819.28
2018-03-14T02:07:39.689Z,97823.50
2018-03-14T02:10:08.053Z,97826.73
2018-03-14T02:12:36.382Z,97823.09
2018-03-14T02:15:05.134Z,97823.80
2018-03-14T02:17:33.549Z,97831.91
2018-03-14T02:20:01.876Z,97834.52
2018-03-14T02:22:30.756Z,97833.73
2018-03-14T02:24:59.136Z,97837.51
2018-03-14T02:27:27.519Z,97834.38
2018-03-14T02:29:55.852Z,97836.67
2018-03-14T02:32:24.241Z,97838.70
2018-03-14T02:34:52.623Z,97835.71
2018-03-14T02:37:21.146Z,97835.86
2018-03-14T02:39:49.503Z,97836.66
2018-03-14T02:42:18.314Z,97841.38
2018-03-14T02:44:46.776Z,97841.16
2018-03-14T02:47:15.120Z,97847.16
2018-03-14T02:49:43.429Z,97849.69
2018-03-14T02:52:12.414Z,97844.94
2018-03-14T02:54:40.730Z,97852.03
2018-03-14T02:57:09.088Z,97851.18
2018-03-14T02:59:37.972Z,97846.93
2018-03-14T03:02:06.289Z,97839.36
2018-03-14T03:04:34.828Z,97840.91
2018-03-14T03:07:03.187Z,97836.28
2018-03-14T03:09:31.492Z,97836.34
2018-03-14T03:12:00.379Z,97839.36
2018-03-14T03:14:29.256Z,97841.72
2018-03-14T03:16:57.563Z,97845.27
2018-03-14T03:19:25.869Z,97850.95
2018-03-14T03:21:54.216Z,97847.48
2018-03-14T03:24:22.793Z,97850.06
2018-03-14T03:26:51.147Z,97855.92
2018-03-14T03:29:19.461Z,97858.84
2018-03-14T03:31:48.540Z,97858.84
2018-03-14T03:34:18.684Z,97857.72
2018-03-14T03:36:47.333Z,97862.08
2018-03-14T03:39:15.650Z,97860.32
2018-03-14T03:41:44.468Z,97854.50
2018-03-14T03:44:12.782Z,97859.70
2018-03-14T03:46:41.168Z,97859.70
2018-03-14T03:49:09.677Z,97857.65
2018-03-14T03:51:38.053Z,97861.13
2018-03-14T03:54:06.368Z,97859.87
2018-03-14T03:56:34.762Z,97858.13
2018-03-14T03:59:03.163Z,97859.85
2018-03-14T04:01:31.675Z,97860.09
2018-03-14T04:04:00.020Z,97863.96
2018-03-14T04:06:28.329Z,97866.87
2018-03-14T04:08:56.635Z,97869.38
2018-03-14T04:11:24.996Z,97869.38
2018-03-14T04:13:54.031Z,97874.44
2018-03-14T04:16:22.892Z,97873.34
2018-03-14T04:18:51.604Z,97867.56
2018-03-14T04:21:20.197Z,97867.19
2018-03-14T04:23:50.044Z,97872.17
2018-03-14T04:26:19.314Z,97870.27
2018-03-14T04:28:47.695Z,97877.05
2018-03-14T04:31:16.137Z,97878.70
2018-03-14T04:33:44.440Z,97869.54
2018-03-14T04:36:12.984Z,97871.37
2018-03-14T04:38:41.349Z,97871.53
2018-03-14T04:41:09.659Z,97866.55
2018-03-14T04:43:37.967Z,97864.88
2018-03-14T04:46:06.371Z,97867.10
2018-03-14T04:48:34.733Z,97869.06
2018-03-14T04:51:03.141Z,97867.41
2018-03-14T04:53:31.504Z,97865.77
2018-03-14T04:56:01.108Z,97870.97
2018-03-14T04:58:29.428Z,97870.16
2018-03-14T05:00:57.768Z,97868.67
2018-03-14T05:03:26.084Z,97874.03
2018-03-14T05:05:54.403Z,97877.56
2018-03-14T05:08:22.763Z,97875.46
2018-03-14T05:10:51.458Z,97869.85
2018-03-14T05:13:20.200Z,97870.55
2018-03-14T05:15:48.774Z,97877.73
2018-03-14T05:18:17.084Z,97869.23
2018-03-14T05:20:45.384Z,97876.41
2018-03-14T05:23:13.736Z,97878.59
2018-03-14T05:25:42.048Z,97879.31
2018-03-14T05:28:10.360Z,97878.70
2018-03-14T05:30:38.803Z,97880.35
2018-03-14T05:33:08.580Z,97876.09
2018-03-14T05:35:37.521Z,97880.59
2018-03-14T05:38:06.580Z,97883.89
2018-03-14T05:40:35.040Z,97886.25
2018-03-14T05:43:03.319Z,97885.63
2018-03-14T05:45:32.168Z,97889.00
2018-03-14T05:48:01.345Z,97889.19
2018-03-14T05:50:29.654Z,97887.92
2018-03-14T05:52:57.956Z,97883.91
2018-03-14T05:55:26.304Z,97886.73
2018-03-14T05:57:54.608Z,97885.70
2018-03-14T06:00:22.928Z,97886.27
2018-03-14T06:02:51.366Z,97887.76
2018-03-14T06:05:19.737Z,97891.30
2018-03-14T06:07:48.016Z,97889.94
2018-03-14T06:10:20.184Z,97888.68
2018-03-14T06:12:48.488Z,97885.59
2018-03-14T06:15:16.800Z,97885.98
2018-03-14T06:17:45.144Z,97883.40
2018-03-14T06:20:13.457Z,97889.03
2018-03-14T06:22:42.820Z,97893.20
2018-03-14T06:25:11.960Z,97897.46
2018-03-14T06:27:40.640Z,97894.86
2018-03-14T06:30:09.524Z,97895.16
2018-03-14T06:32:37.869Z,97899.03
2018-03-14T06:35:06.792Z,97901.81
2018-03-14T06:37:35.100Z,97901.77
2018-03-14T06:40:04.064Z,97899.32
2018-03-14T06:42:32.367Z,97903.39
2018-03-14T06:45:00.676Z,97903.08
2018-03-14T06:47:29.726Z,97909.05
2018-03-14T06:49:58.037Z,97904.91
2018-03-14T06:52:26.340Z,97906.39
2018-03-14T06:54:54.677Z,97914.32
2018-03-14T06:57:22.985Z,97912.40
2018-03-14T07:00:09.129Z,97915.55
2018-03-14T07:02:49.793Z,97912.53
2018-03-14T07:05:36.492Z,97912.59
2018-03-14T07:08:04.808Z,97913.55
2018-03-14T07:10:33.144Z,97914.12
2018-03-14T07:13:01.455Z,97910.92
2018-03-14T07:15:29.840Z,97913.84
2018-03-14T07:17:58.191Z,97920.44
2018-03-14T07:20:26.546Z,97919.29
2018-03-14T07:22:54.861Z,97919.28
2018-03-14T07:25:24.027Z,97912.37
2018-03-14T07:27:52.339Z,97924.75
2018-03-14T07:30:20.652Z,97923.44
2018-03-14T07:32:48.994Z,97925.84
2018-03-14T07:35:18.089Z,97925.05
2018-03-14T07:37:47.680Z,97931.90
2018-03-14T07:40:16.189Z,97930.51
2018-03-14T07:42:45.048Z,97932.69
2018-03-14T07:45:13.385Z,97934.53
2018-03-14T07:47:41.749Z,97934.48
2018-03-14T07:50:10.052Z,97936.11
2018-03-14T07:52:38.364Z,97936.36
2018-03-14T07:55:06.731Z,97935.19
2018-03-14T07:57:35.042Z,97932.03
2018-03-14T08:00:03.352Z,97929.95
2018-03-14T08:02:31.709Z,97928.77
2018-03-14T08:05:00.017Z,97930.08
2018-03-14T08:07:28.317Z,97931.56
2018-03-14T08:09:56.917Z,97925.49
2018-03-14T08:12:25.377Z,97922.76
2018-03-14T08:14:53.689Z,97928.59
2018-03-14T08:17:21.998Z,97920.16
2018-03-14T08:19:50.344Z,97919.13
2018-03-14T08:22:19.702Z,97916.41
2018-03-14T08:24:48.016Z,97923.73
2018-03-14T08:27:16.360Z,97921.34
2018-03-14T08:29:44.663Z,97923.53
2018-03-14T08:32:13.007Z,97919.10
2018-03-14T08:34:41.363Z,97920.98
2018-03-14T08:37:10.502Z,97919.07
2018-03-14T08:39:39.632Z,97913.77
2018-03-14T08:42:07.937Z,97909.39
2018-03-14T08:44:36.830Z,97918.52
2018-03-14T08:47:05.193Z,97912.41
2018-03-14T08:49:33.500Z,97917.39
2018-03-14T08:52:02.792Z,97911.91
2018-03-14T08:54:31.154Z,97912.86
2018-03-14T08:57:00.224Z,97917.84
2018-03-14T08:59:29.356Z,97909.84
2018-03-14T09:01:58.449Z,97918.55
2018-03-14T09:04:27.523Z,97914.08
2018-03-14T09:06:55.820Z,97914.16
2018-03-14T09:09:24.172Z,97903.61
2018-03-14T09:11:52.485Z,97911.67
2018-03-14T09:14:20.808Z,97906.91
2018-03-14T09:16:50.214Z,97909.91
2018-03-14T09:19:18.515Z,97910.55
2018-03-14T09:21:46.829Z,97904.33
2018-03-14T09:24:15.168Z,97902.54
2018-03-14T09:26:43.485Z,97898.77
2018-03-14T09:29:12.417Z,97897.27
2018-03-14T09:31:41.498Z,97902.63
2018-03-14T09:34:09.815Z,97901.27
2018-03-14T09:36:38.127Z,97903.67
2018-03-14T09:39:06.648Z,97900.09
2018-03-14T09:41:35.763Z,97894.95
2018-03-14T09:44:04.044Z,97901.39
2018-03-14T09:46:32.960Z,97890.73
2018-03-14T09:49:01.288Z,97885.95
2018-03-14T09:51:30.239Z,97889.09
2018-03-14T09:53:59.132Z,97884.42
2018-03-14T09:56:27.452Z,97883.93
2018-03-14T09:58:56.448Z,97878.70
2018-03-14T10:01:24.928Z,97885.27
2018-03-14T10:03:53.943Z,97875.40
2018-03-14T10:06:22.452Z,97875.64
2018-03-14T10:08:50.779Z,97874.75
2018-03-14T10:11:19.873Z,97882.50
2018-03-14T10:13:48.672Z,97872.98
2018-03-14T10:16:17.766Z,97870.93
2018-03-14T10:18:46.624Z,97873.17
2018-03-14T10:21:15.233Z,97878.09
2018-03-14T10:23:43.992Z,97871.41
2018-03-14T10:26:12.615Z,97868.49
2018-03-14T10:28:41.112Z,97863.88
2018-03-14T10:31:09.542Z,97855.09
2018-03-14T10:33:37.905Z,97849.77
2018-03-14T10:36:06.409Z,97850.02
2018-03-14T10:38:36.472Z,97846.20
2018-03-14T10:41:04.806Z,97835.19
2018-03-14T10:43:33.102Z,97837.14
2018-03-14T10:46:02.089Z,97832.61
2018-03-14T10:48:30.965Z,97834.96
2018-03-14T10:50:59.683Z,97832.12
2018-03-14T10:53:28.109Z,97824.91
2018-03-14T10:55:56.451Z,97826.89
2018-03-14T10:58:25.156Z,97820.27
2018-03-14T11:01:12.132Z,97813.32
2018-03-14T11:03:45.324Z,97816.48
2018-03-14T11:06:13.693Z,97813.27
2018-03-14T11:08:42.204Z,97801.19
2018-03-14T11:11:11.067Z,97804.91
2018-03-14T11:13:39.452Z,97809.17
2018-03-14T11:16:07.760Z,97802.11
2018-03-14T11:18:36.073Z,97797.33
2018-03-14T11:21:04.968Z,97795.75
2018-03-14T11:23:33.496Z,97792.21
2018-03-14T11:26:02.365Z,97787.27
2018-03-14T11:28:30.728Z,97779.56
2018-03-14T11:30:59.996Z,97774.57
2018-03-14T11:33:28.308Z,97772.92
2018-03-14T11:35:56.685Z,97771.02
2018-03-14T11:38:26.807Z,97767.97
2018-03-14T11:40:55.117Z,97764.91
2018-03-14T11:43:23.579Z,97764.09
2018-03-14T11:45:52.093Z,97762.86
2018-03-14T11:48:20.437Z,97760.17
2018-03-14T11:50:49.004Z,97754.39
2018-03-14T11:53:17.360Z,97754.72
2018-03-14T11:55:45.680Z,97751.47
2018-03-14T11:58:14.280Z,97740.66
2018-03-14T12:00:42.637Z,97738.23
2018-03-14T12:03:11.527Z,97727.35
2018-03-14T12:05:39.841Z,97734.97
2018-03-14T12:08:08.676Z,97727.42
2018-03-14T12:10:37.047Z,97728.72
2018-03-14T12:13:05.356Z,97715.81
2018-03-14T12:15:34.451Z,97715.97
2018-03-14T12:18:02.986Z,97713.66
2018-03-14T12:20:31.299Z,97708.98
2018-03-14T12:23:00.740Z,97704.66
2018-03-14T12:25:29.119Z,97694.96
2018-03-14T12:27:57.432Z,97697.97
2018-03-14T12:30:26.254Z,97688.03
2018-03-14T12:32:54.616Z,97684.27
2018-03-14T12:35:23.009Z,97677.30
2018-03-14T12:37:51.312Z,97673.42
2018-03-14T12:40:20.212Z,97670.63
2018-03-14T12:42:48.537Z,97660.00
2018-03-14T12:45:17.273Z,97655.88
2018-03-14T12:47:45.877Z,97651.80
2018-03-14T12:50:14.228Z,97638.98
2018-03-14T12:52:42.693Z,97641.38
2018-03-14T12:55:11.000Z,97625.33
2018-03-14T12:57:39.930Z,97617.56
2018-03-14T13:00:08.348Z,97617.05
2018-03-14T13:02:37.292Z,97612.86
2018-03-14T13:05:05.601Z,97612.33
2018-03-14T13:07:33.904Z,97609.27
2018-03-14T13:10:02.852Z,97605.97
2018-03-14T13:12:31.600Z,97597.00
2018-03-14T13:14:59.923Z,97598.53
2018-03-14T13:17:28.684Z,97603.09
2018-03-14T13:19:57.235Z,97599.00
2018-03-14T13:22:25.557Z,97593.11
2018-03-14T13:24:53.922Z,97597.33
2018-03-14T13:27:22.700Z,97585.98
2018-03-14T13:29:51.017Z,97593.35
2018-03-14T13:32:19.735Z,97582.75
2018-03-14T13:34:48.552Z,97575.28
2018-03-14T13:37:17.162Z,97577.67
2018-03-14T13:39:45.939Z,97578.24
2018-03-14T13:42:14.256Z,97572.59
2018-03-14T13:44:42.980Z,97576.61
2018-03-14T13:47:11.288Z,97572.58
2018-03-14T13:49:39.596Z,97567.80
2018-03-14T13:52:08.656Z,97568.33
2018-03-14T13:54:36.985Z,97559.47
2018-03-14T13:57:05.304Z,97556.66
2018-03-14T13:59:33.681Z,97558.06
2018-03-14T14:02:02.007Z,97549.91
2018-03-14T14:04:30.724Z,97541.66
2018-03-14T14:06:59.380Z,97542.72
2018-03-14T14:09:27.760Z,97543.98
2018-03-14T14:11:56.072Z,97538.25
2018-03-14T14:14:24.585Z,97527.45
2018-03-14T14:16:52.928Z,97526.02
2018-03-14T14:19:21.244Z,97524.15
2018-03-14T14:21:49.616Z,97522.00
2018-03-14T14:24:17.929Z,97515.95
2018-03-14T14:26:46.241Z,97506.28
2018-03-14T14:29:14.585Z,97507.98
2018-03-14T14:31:42.891Z,97496.09
2018-03-14T14:34:11.864Z,97495.66
2018-03-14T14:36:40.843Z,97489.77
2018-03-14T14:39:09.560Z,97481.69
2018-03-14T14:41:38.970Z,97474.70
2018-03-14T14:44:08.083Z,97475.41
2018-03-14T14:46:36.397Z,97468.16
2018-03-14T14:49:04.718Z,97465.50
2018-03-14T14:51:33.888Z,97460.06
2018-03-14T14:54:02.217Z,97450.35
2018-03-14T14:56:30.536Z,97450.11
2018-03-14T14:58:58.900Z,97444.48
2018-03-14T15:01:27.220Z,97439.37
2018-03-14T15:03:55.540Z,97438.31
2018-03-14T15:06:24.418Z,97432.27
2018-03-14T15:08:52.730Z,97428.92
2018-03-14T15:11:21.096Z,97425.34
2018-03-14T15:13:49.400Z,97420.25
2018-03-14T15:16:18.292Z,97422.05
2018-03-14T15:18:46.625Z,97418.28
2018-03-14T15:21:15.219Z,97400.14
2018-03-14T15:23:43.532Z,97409.47
2018-03-14T15:26:12.492Z,97406.38
2018-03-14T15:28:43.536Z,97408.70
2018-03-14T15:31:12.050Z,97402.05
2018-03-14T15:33:41.160Z,97398.26
2018-03-14T15:36:09.481Z,97399.80
2018-03-14T15:38:37.800Z,97400.73
2018-03-14T15:41:06.816Z,97395.13
2018-03-14T15:43:35.140Z,97391.69
2018-03-14T15:46:03.661Z,97389.05
2018-03-14T15:48:32.448Z,97392.90
2018-03-14T15:51:00.945Z,97386.02
2018-03-14T15:53:29.256Z,97381.59
2018-03-14T15:55:57.598Z,97375.95
2018-03-14T15:58:26.680Z,97373.06
2018-03-14T16:00:56.280Z,97367.82
2018-03-14T16:03:24.600Z,97368.12
2018-03-14T16:05:52.931Z,97369.20
2018-03-14T16:08:21.285Z,97368.12
2018-03-14T16:10:49.604Z,97367.64
2018-03-14T16:13:17.974Z,97367.61
2018-03-14T16:15:46.284Z,97365.66
2018-03-14T16:18:15.361Z,97366.48
2018-03-14T16:20:44.717Z,97366.39
2018-03-14T16:23:13.385Z,97364.75
2018-03-14T16:25:42.588Z,97357.61
2018-03-14T16:28:10.996Z,97354.70
2018-03-14T16:30:39.344Z,97348.02
2018-03-14T16:33:09.091Z,97352.03
2018-03-14T16:35:37.682Z,97348.13
2018-03-14T16:38:07.095Z,97349.07
2018-03-14T16:40:36.280Z,97357.59
2018-03-14T16:43:04.585Z,97363.98
2018-03-14T16:45:33.464Z,97359.79
2018-03-14T16:48:02.984Z,97356.44
2018-03-14T16:50:31.291Z,97366.83
2018-03-14T16:52:59.649Z,97360.30
2018-03-14T16:55:28.725Z,97357.34
2018-03-14T16:57:58.308Z,97364.87
2018-03-14T17:13:14.692Z,97355.86
2018-03-14T17:15:43.069Z,97354.70
2018-03-14T17:18:11.353Z,97354.82
2018-03-14T17:20:39.770Z,97355.00
2018-03-14T17:23:08.336Z,97355.98
2018-03-14T17:25:37.744Z,97359.58
2018-03-14T17:28:06.052Z,97355.33
2018-03-14T17:30:34.590Z,97351.45
2018-03-14T17:33:02.948Z,97347.95
2018-03-14T17:35:31.824Z,97349.44
2018-03-14T17:38:01.164Z,97347.70
2018-03-14T17:40:29.545Z,97351.38
2018-03-14T17:42:57.856Z,97347.40
2018-03-14T17:45:26.452Z,97353.74
2018-03-14T17:47:55.517Z,97351.98
2018-03-14T17:50:23.819Z,97357.08
2018-03-14T17:52:52.494Z,97351.29
2018-03-14T17:55:21.478Z,97341.94
2018-03-14T17:57:49.756Z,97339.98
2018-03-14T18:00:18.060Z,97346.93
2018-03-14T18:02:46.412Z,97336.48
2018-03-14T18:05:17.045Z,97338.97
2018-03-14T18:07:45.393Z,97334.29
2018-03-14T18:10:13.796Z,97330.08
2018-03-14T18:12:42.104Z,97327.27
2018-03-14T18:15:11.853Z,97334.25
2018-03-14T18:17:40.848Z,97336.31
2018-03-14T18:20:09.172Z,97333.44
2018-03-14T18:22:37.485Z,97332.20
2018-03-14T18:25:06.544Z,97331.78
2018-03-14T18:27:34.854Z,97323.38
2018-03-14T18:30:03.662Z,97312.63
2018-03-14T18:32:32.772Z,97318.87
2018-03-14T18:35:01.144Z,97319.95
2018-03-14T18:37:30.246Z,97317.95
2018-03-14T18:39:59.322Z,97311.16
2018-03-14T18:42:27.695Z,97316.05
2018-03-14T18:44:56.088Z,97309.55
2018-03-14T18:47:24.650Z,97308.10
2018-03-14T18:49:53.773Z,97306.78
2018-03-14T18:52:22.085Z,97308.59
2018-03-14T18:54:50.384Z,97309.59
2018-03-14T18:57:18.748Z,97312.12
2018-03-14T18:59:47.060Z,97311.00
2018-03-14T19:02:16.289Z,97312.72
2018-03-14T19:04:45.499Z,97313.71
2018-03-14T19:07:13.807Z,97305.41
2018-03-14T19:09:42.113Z,97305.13
2018-03-14T19:12:10.468Z,97299.64
2018-03-14T19:14:39.404Z,97295.61
2018-03-14T19:17:08.944Z,97293.11
2018-03-14T19:19:38.267Z,97290.58
2018-03-14T19:22:06.689Z,97290.41
2018-03-14T19:24:35.146Z,97292.91
2018-03-14T19:27:03.499Z,97285.09
2018-03-14T19:29:31.861Z,97281.30
2018-03-14T19:32:00.172Z,97280.17
2018-03-14T19:34:29.008Z,97278.58
2018-03-14T19:36:58.024Z,97273.43
2018-03-14T19:39:27.282Z,97268.27
2018-03-14T19:41:57.224Z,97271.34
2018-03-14T19:44:26.959Z,97267.55
2018-03-14T19:46:56.078Z,97271.69
2018-03-14T19:49:25.953Z,97268.64
2018-03-14T19:51:55.860Z,97271.47
2018-03-14T19:54:24.557Z,97260.48
2018-03-14T19:56:53.888Z,97259.00
2018-03-14T19:59:23.936Z,97264.98
2018-03-14T20:01:54.800Z,97260.98
2018-03-14T20:04:23.692Z,97257.23
2018-03-14T20:06:53.687Z,97257.34
2018-03-14T20:09:22.144Z,97257.15
2018-03-14T20:11:50.582Z,97252.16
2018-03-14T20:14:19.726Z,97252.36
2018-03-14T20:16:49.856Z,97246.80
2018-03-14T20:19:18.236Z,97248.52
2018-03-14T20:21:47.603Z,97251.83
2018-03-14T20:24:16.445Z,97249.66
2018-03-14T20:26:45.541Z,97252.20
2018-03-14T20:29:14.890Z,97249.92
2018-03-14T20:31:43.969Z,97246.72
2018-03-14T20:34:16.080Z,97254.89
2018-03-14T20:36:48.332Z,97245.23
2018-03-14T20:39:16.801Z,97241.98
2018-03-14T20:41:45.221Z,97236.70
2018-03-14T20:44:13.679Z,97236.91
2018-03-14T20:46:42.497Z,97230.85
2018-03-14T20:49:11.593Z,97234.34
2018-03-14T20:51:39.937Z,97225.47
2018-03-14T20:54:08.472Z,97229.77
2018-03-14T20:56:37.132Z,97233.09
2018-03-14T20:59:05.569Z,97223.86
2018-03-14T21:01:33.867Z,97219.28
2018-03-14T21:04:02.627Z,97218.64
2018-03-14T21:06:31.087Z,97217.84
2018-03-14T21:09:00.764Z,97218.27
2018-03-14T21:11:30.787Z,97218.81
2018-03-14T21:13:59.564Z,97216.72
2018-03-14T21:16:27.920Z,97214.58
2018-03-14T21:18:56.304Z,97206.16
2018-03-14T21:21:24.754Z,97201.12
2018-03-14T21:23:53.247Z,97194.52
2018-03-14T21:26:21.608Z,97192.59
2018-03-14T21:28:49.936Z,97188.61
2018-03-14T21:31:18.944Z,97194.44
2018-03-14T21:33:47.568Z,97183.57
2018-03-14T21:36:15.891Z,97187.34
2018-03-14T21:38:44.212Z,97188.53
2018-03-14T21:41:14.417Z,97183.30
2018-03-14T21:43:42.728Z,97181.03
2018-03-14T21:46:11.700Z,97182.17
2018-03-14T21:48:40.772Z,97182.06
2018-03-14T21:51:09.351Z,97177.59
2018-03-14T21:53:38.094Z,97169.95
2018-03-14T21:56:06.440Z,97160.34
2018-03-14T21:58:35.604Z,97152.86
2018-03-14T22:01:04.123Z,97150.45
2018-03-14T22:03:32.440Z,97151.27
2018-03-14T22:06:00.789Z,97150.66
2018-03-14T22:08:29.229Z,97152.41
2018-03-14T22:10:57.581Z,97146.91
2018-03-14T22:13:26.228Z,97142.94
2018-03-14T22:15:54.532Z,97130.78
2018-03-14T22:18:23.530Z,97130.27
2018-03-14T22:20:52.576Z,97129.44
2018-03-14T22:23:20.880Z,97124.93
2018-03-14T22:25:49.237Z,97124.82
2018-03-14T22:28:17.980Z,97123.50
2018-03-14T22:30:46.292Z,97116.38
2018-03-14T22:33:14.795Z,97115.69
2018-03-14T22:35:43.101Z,97112.72
2018-03-14T22:38:11.476Z,97109.34
2018-03-14T22:40:40.424Z,97099.81
2018-03-14T22:43:08.744Z,97095.12
2018-03-14T22:45:37.080Z,97097.13
2018-03-14T22:48:05.379Z,97091.25
2018-03-14T22:50:33.721Z,97080.48
2018-03-14T22:53:02.036Z,97069.14
2018-03-14T22:55:31.056Z,97072.36
2018-03-14T22:57:59.368Z,97071.31
2018-03-14T23:00:27.684Z,97068.73
2018-03-14T23:02:56.025Z,97065.81
2018-03-14T23:05:24.329Z,97061.86
2018-03-14T23:07:53.887Z,97050.30
2018-03-14T23:10:22.402Z,97047.59
2018-03-14T23:12:51.444Z,97049.41
2018-03-14T23:15:20.564Z,97043.97
2018-03-14T23:17:49.612Z,97038.77
2018-03-14T23:20:18.080Z,97031.87
2018-03-14T23:22:47.150Z,97030.83
2018-03-14T23:25:15.456Z,97024.33
2018-03-14T23:27:44.572Z,97024.02
2018-03-14T23:30:13.425Z,97010.78
2018-03-14T23:32:41.773Z,97003.80
2018-03-14T23:35:10.093Z,96995.64
2018-03-14T23:37:38.469Z,96994.34
2018-03-14T23:40:06.785Z,96996.34
2018-03-14T23:42:35.087Z,96996.65
2018-03-14T23:45:03.471Z,96989.30
2018-03-14T23:47:32.201Z,96993.79
2018-03-14T23:50:01.323Z,96995.69
2018-03-14T23:52:29.632Z,96993.04
2018-03-14T23:54:57.942Z,96991.98
2018-03-14T23:57:26.279Z,96980.27
2018-03-14T23:59:54.593Z,96977.75
